Time;durP1;ratioP1;P1;durP2;ratioP2;P2;SDS_P1;SDS_P2;PMS_P1;PMS_P2;Temp;Humidity;BMP_temperature;BMP_pressure;BME280_temperature;BME280_humidity;BME280_pressure;Samples;Min_cycle;Max_cycle;Signal;HPM_P1;HPM_P2
2023/05/31 00:02:12;;;;;;;;;;;;;;;18.98;34.57;102490.47;7357132;19;19923;-57
2023/05/31 00:04:38;;;;;;;;;;;;;;;18.92;34.74;102475.63;7352193;19;20353;-57
2023/05/31 00:07:04;;;;;;;;;;;;;;;18.88;34.73;102473.13;7358363;19;20259;-57
2023/05/31 00:09:29;;;;;;;;;;;;;;;18.83;34.48;102473.25;7355124;19;19926;-57
2023/05/31 00:11:54;;;;;;;;;;;;;;;18.77;34.48;102476.06;7358972;19;19927;-57
2023/05/31 00:14:19;;;;;;;;;;;;;;;18.74;34.76;102465.56;7358354;19;19919;-57
2023/05/31 00:16:45;;;;;;;;;;;;;;;18.70;34.59;102466.56;7357227;19;20403;-57
2023/05/31 00:19:10;;;;;;;;;;;;;;;18.65;35.00;102460.50;7355751;19;19930;-57
2023/05/31 00:21:35;;;;;;;;;;;;;;;18.60;34.86;102465.06;7357535;19;19956;-57
2023/05/31 00:24:01;;;;;;;;;;;;;;;18.56;34.98;102461.66;7357051;19;19922;-57
2023/05/31 00:26:26;;;;;;;;;;;;;;;18.52;34.92;102456.47;7356617;19;19918;-57
2023/05/31 00:28:51;;;;;;;;;;;;;;;18.47;35.08;102455.75;7355866;19;19951;-57
2023/05/31 00:31:16;;;;;;;;;;;;;;;18.42;35.04;102459.38;7355381;19;19919;-57
2023/05/31 00:33:44;;;;;;;;;;;;;;;18.39;35.39;102453.28;7356271;19;20257;-57
2023/05/31 00:36:10;;;;;;;;;;;;;;;18.34;35.06;102456.06;7352325;19;20446;-57
2023/05/31 00:38:35;;;;;;;;;;;;;;;18.29;35.56;102452.66;7359095;19;19915;-57
2023/05/31 00:41:00;;;;;;;;;;;;;;;18.24;35.62;102449.28;7352169;19;20442;-57
2023/05/31 00:43:25;;;;;;;;;;;;;;;18.20;35.26;102455.59;7354736;19;19939;-57
2023/05/31 00:45:51;;;;;;;;;;;;;;;18.15;35.53;102454.84;7355167;19;19923;-57
2023/05/31 00:48:17;;;;;;;;;;;;;;;18.11;35.83;102450.53;7353187;19;19944;-57
2023/05/31 00:50:42;;;;;;;;;;;;;;;18.07;35.81;102455.03;7351840;19;20283;-57
2023/05/31 00:53:08;;;;;;;;;;;;;;;18.05;35.57;102466.56;7357233;19;19918;-57
2023/05/31 00:55:34;;;;;;;;;;;;;;;18.00;35.91;102465.81;7355631;19;19919;-57
2023/05/31 00:58:00;;;;;;;;;;;;;;;17.96;35.67;102458.88;7357218;19;19931;-57
2023/05/31 01:00:25;;;;;;;;;;;;;;;17.93;35.70;102458.94;7353135;19;19914;-57
2023/05/31 01:02:51;;;;;;;;;;;;;;;17.79;36.15;102446.94;7357179;19;19926;-57
2023/05/31 01:05:17;;;;;;;;;;;;;;;17.86;35.84;102463.50;7356008;19;19919;-57
2023/05/31 01:07:42;;;;;;;;;;;;;;;17.82;36.16;102465.34;7356399;19;19947;-57
2023/05/31 01:10:08;;;;;;;;;;;;;;;17.79;35.87;102457.53;7349011;19;19926;-57
2023/05/31 01:12:33;;;;;;;;;;;;;;;17.75;36.22;102455.84;7355841;19;19944;-57
2023/05/31 01:14:58;;;;;;;;;;;;;;;17.71;35.93;102448.88;7357851;19;20615;-57
2023/05/31 01:17:23;;;;;;;;;;;;;;;17.68;36.06;102448.06;7356292;19;20341;-57
2023/05/31 01:19:52;;;;;;;;;;;;;;;17.62;36.46;102449.09;7355526;19;20026;-57
2023/05/31 01:22:33;;;;;;;;;;;;;;;17.37;36.09;102407.41;7353574;19;20537;-57
2023/05/31 01:24:58;;;;;;;;;;;;;;;17.54;36.43;102441.38;7353002;19;19923;-57
2023/05/31 01:27:24;;;;;;;;;;;;;;;17.51;36.08;102440.56;7356103;19;19935;-57
2023/05/31 01:29:50;;;;;;;;;;;;;;;17.47;36.17;102449.44;7350450;19;19960;-57
2023/05/31 01:32:16;;;;;;;;;;;;;;;17.43;36.65;102447.78;7351118;19;20348;-57
2023/05/31 01:34:45;;;;;;;;;;;;;;;17.38;36.21;102448.75;7357089;19;19982;-57
2023/05/31 01:37:10;;;;;;;;;;;;;;;17.35;36.24;102450.63;7354277;19;19926;-56
2023/05/31 01:39:35;;;;;;;;;;;;;;;17.30;36.28;102456.00;7351855;19;20363;-57
2023/05/31 01:42:01;;;;;;;;;;;;;;;17.26;36.42;102453.47;7354362;19;19930;-57
2023/05/31 01:44:27;;;;;;;;;;;;;;;17.21;36.72;102453.56;7355089;19;19936;-58
2023/05/31 01:46:52;;;;;;;;;;;;;;;17.17;36.47;102457.16;7352397;19;19931;-57
2023/05/31 01:49:18;;;;;;;;;;;;;;;17.13;36.55;102455.50;7357157;19;19939;-57
2023/05/31 01:51:44;;;;;;;;;;;;;;;17.09;36.54;102460.00;7341916;19;19919;-57
2023/05/31 01:54:10;;;;;;;;;;;;;;;17.05;36.69;102458.31;7354697;19;20727;-57
2023/05/31 01:56:36;;;;;;;;;;;;;;;17.02;36.97;102462.78;7352028;19;19952;-57
2023/05/31 01:59:04;;;;;;;;;;;;;;;16.97;36.92;102454.09;7349075;19;19943;-57
2023/05/31 02:01:29;;;;;;;;;;;;;;;16.94;37.00;102454.19;7360566;19;19941;-57
2023/05/31 02:03:55;;;;;;;;;;;;;;;16.89;37.16;102459.56;7360104;19;19926;-57
2023/05/31 02:06:20;;;;;;;;;;;;;;;16.84;36.86;102464.91;7356058;19;19919;-57
2023/05/31 02:08:46;;;;;;;;;;;;;;;16.74;36.85;102452.81;7361333;19;20669;-57
2023/05/31 02:11:11;;;;;;;;;;;;;;;16.71;36.77;102452.88;7359208;19;19922;-57
2023/05/31 02:13:36;;;;;;;;;;;;;;;16.72;37.01;102464.28;7356678;19;19925;-57
2023/05/31 02:16:05;;;;;;;;;;;;;;;16.67;37.08;102464.34;7359852;19;19919;-57
2023/05/31 02:18:30;;;;;;;;;;;;;;;16.63;37.16;102467.97;7358250;19;19998;-57
2023/05/31 02:20:56;;;;;;;;;;;;;;;16.59;36.98;102464.50;7358053;19;19975;-57
2023/05/31 02:23:22;;;;;;;;;;;;;;;16.54;37.25;102460.22;7358565;19;19922;-57
2023/05/31 02:25:47;;;;;;;;;;;;;;;16.51;36.83;102462.91;7356413;19;19987;-56
2023/05/31 02:28:13;;;;;;;;;;;;;;;16.47;36.93;102458.59;7353516;19;19923;-57
2023/05/31 02:30:38;;;;;;;;;;;;;;;16.43;37.05;102462.22;7358686;19;19925;-57
2023/05/31 02:33:04;;;;;;;;;;;;;;;16.40;37.20;102462.25;7355990;19;19998;-57
2023/05/31 02:35:29;;;;;;;;;;;;;;;16.34;37.52;102457.97;7354424;19;19919;-57
2023/05/31 02:37:55;;;;;;;;;;;;;;;16.30;37.19;102462.41;7359732;19;19926;-57
2023/05/31 02:40:20;;;;;;;;;;;;;;;16.27;37.43;102467.75;7359130;19;20337;-57
2023/05/31 02:42:45;;;;;;;;;;;;;;;16.23;37.44;102455.53;7353326;19;19939;-57
2023/05/31 02:45:11;;;;;;;;;;;;;;;16.19;37.64;102453.84;7358583;19;19932;-57
2023/05/31 02:47:37;;;;;;;;;;;;;;;16.15;37.27;102457.44;7356743;19;20898;-56
2023/05/31 02:50:03;;;;;;;;;;;;;;;16.11;37.72;102455.72;7358436;19;19931;-57
2023/05/31 02:52:28;;;;;;;;;;;;;;;16.09;37.92;102452.28;7352169;19;19923;-57
2023/05/31 02:54:54;;;;;;;;;;;;;;;16.04;37.72;102454.97;7357423;19;19930;-57
2023/05/31 02:57:19;;;;;;;;;;;;;;;16.00;37.87;102448.03;7360355;19;20277;-57
2023/05/31 02:59:45;;;;;;;;;;;;;;;15.97;37.74;102444.59;7357189;19;20519;-57
2023/05/31 03:02:10;;;;;;;;;;;;;;;15.94;37.80;102452.53;7350874;19;19925;-57
2023/05/31 03:04:36;;;;;;;;;;;;;;;15.91;37.90;102458.72;7339829;19;20705;-56
2023/05/31 03:07:01;;;;;;;;;;;;;;;15.88;37.84;102455.28;7356340;19;19922;-57
2023/05/31 03:09:27;;;;;;;;;;;;;;;15.85;37.81;102457.94;7354545;19;19923;-56
2023/05/31 03:11:52;;;;;;;;;;;;;;;15.81;38.08;102455.38;7356701;19;19974;-57
2023/05/31 03:14:17;;;;;;;;;;;;;;;15.79;37.97;102454.53;7353952;19;20635;-57
2023/05/31 03:16:43;;;;;;;;;;;;;;;15.76;38.29;102451.06;7332609;19;20079;-57
2023/05/31 03:19:08;;;;;;;;;;;;;;;15.73;38.24;102453.75;7349074;19;19926;-56
2023/05/31 03:21:33;;;;;;;;;;;;;;;15.70;38.46;102453.81;7358959;19;20043;-57
2023/05/31 03:23:58;;;;;;;;;;;;;;;15.66;38.36;102463.53;7360379;19;19919;-57
2023/05/31 03:26:24;;;;;;;;;;;;;;;15.63;38.03;102466.22;7356028;19;19918;-57
2023/05/31 03:28:49;;;;;;;;;;;;;;;15.59;38.09;102456.56;7359100;19;19915;-57
2023/05/31 03:31:15;;;;;;;;;;;;;;;15.55;37.96;102465.41;7357887;19;20380;-57
2023/05/31 03:33:40;;;;;;;;;;;;;;;15.50;37.49;102461.97;7359681;19;20346;-56
2023/05/31 03:36:05;;;;;;;;;;;;;;;15.44;37.78;102465.56;7357034;19;19921;-57
2023/05/31 03:38:31;;;;;;;;;;;;;;;15.39;38.12;102470.03;7359811;19;20397;-57
2023/05/31 03:40:56;;;;;;;;;;;;;;;15.35;38.52;102464.84;7356932;19;19928;-56
2023/05/31 03:43:21;;;;;;;;;;;;;;;15.30;38.21;102465.75;7356108;19;20646;-56
2023/05/31 03:45:46;;;;;;;;;;;;;;;15.26;38.60;102458.81;7359238;19;19922;-56
2023/05/31 03:48:12;;;;;;;;;;;;;;;15.23;38.65;102452.72;7353742;19;20630;-57
2023/05/31 03:50:40;;;;;;;;;;;;;;;15.22;38.67;102465.03;7357336;19;20255;-56
2023/05/31 03:53:06;;;;;;;;;;;;;;;15.19;38.79;102462.41;7356987;19;20247;-57
2023/05/31 03:55:32;;;;;;;;;;;;;;;15.17;38.87;102460.72;7358936;19;19944;-57
2023/05/31 03:57:57;;;;;;;;;;;;;;;15.14;38.93;102461.59;7358199;19;20437;-57
2023/05/31 04:00:23;;;;;;;;;;;;;;;15.13;38.94;102459.00;7357761;19;19915;-57
2023/05/31 04:02:48;;;;;;;;;;;;;;;14.86;38.75;102415.53;7356210;19;19923;-57
2023/05/31 04:05:13;;;;;;;;;;;;;;;15.07;39.09;102452.06;7357631;19;19911;-56
2023/05/31 04:07:38;;;;;;;;;;;;;;;15.06;38.80;102455.59;7358397;19;20241;-57
2023/05/31 04:10:04;;;;;;;;;;;;;;;15.03;39.07;102450.38;7354910;19;20797;-57
2023/05/31 04:12:29;;;;;;;;;;;;;;;15.00;38.85;102456.56;7356174;19;19919;-57
2023/05/31 04:14:55;;;;;;;;;;;;;;;14.98;38.57;102463.56;7358104;19;19914;-57
2023/05/31 04:17:20;;;;;;;;;;;;;;;14.95;39.15;102470.63;7359753;19;20679;-57
2023/05/31 04:19:45;;;;;;;;;;;;;;;14.92;39.01;102462.78;7349425;19;19930;-57
2023/05/31 04:22:10;;;;;;;;;;;;;;;14.90;39.26;102459.28;7355745;19;19947;-57
2023/05/31 04:24:36;;;;;;;;;;;;;;;14.87;38.94;102457.59;7356263;19;19927;-57
2023/05/31 04:27:02;;;;;;;;;;;;;;;14.86;39.26;102465.50;7352068;19;19926;-57
2023/05/31 04:29:28;;;;;;;;;;;;;;;14.85;39.20;102469.00;7353809;19;19990;-56
2023/05/31 04:31:53;;;;;;;;;;;;;;;14.83;39.50;102473.41;7354787;19;20430;-57
2023/05/31 04:34:18;;;;;;;;;;;;;;;14.82;39.33;102466.44;7355479;19;20518;-56
2023/05/31 04:36:48;;;;;;;;;;;;;;;14.82;39.31;102466.44;7354792;19;19929;-57
2023/05/31 04:39:15;;;;;;;;;;;;;;;14.81;39.32;102459.44;7356621;19;19915;-57
2023/05/31 04:41:40;;;;;;;;;;;;;;;14.79;39.57;102462.94;7354658;19;20537;-57
2023/05/31 04:44:06;;;;;;;;;;;;;;;14.78;39.62;102466.44;7353990;19;19931;-57
2023/05/31 04:46:31;;;;;;;;;;;;;;;14.79;39.72;102477.84;7354989;19;20988;-56
2023/05/31 04:48:57;;;;;;;;;;;;;;;14.78;39.39;102476.97;7358557;19;19915;-57
2023/05/31 04:51:22;;;;;;;;;;;;;;;14.78;39.50;102471.72;7352027;19;19923;-57
2023/05/31 04:53:48;;;;;;;;;;;;;;;14.78;39.62;102466.44;7357199;19;20008;-57
2023/05/31 04:56:13;;;;;;;;;;;;;;;14.79;39.85;102470.81;7358480;19;19938;-57
2023/05/31 04:58:39;;;;;;;;;;;;;;;14.78;39.47;102466.44;7355140;19;19919;-57
2023/05/31 05:01:04;;;;;;;;;;;;;;;14.79;39.82;102467.31;7356031;19;19915;-57
2023/05/31 05:03:29;;;;;;;;;;;;;;;14.79;39.99;102462.94;7348439;19;19921;-57
2023/05/31 05:05:56;;;;;;;;;;;;;;;14.79;39.60;102457.66;7357742;19;19926;-57
2023/05/31 05:08:21;;;;;;;;;;;;;;;14.82;40.09;102461.16;7349520;19;19983;-56
2023/05/31 05:10:47;;;;;;;;;;;;;;;14.82;39.91;102458.53;7356145;19;20014;-57
2023/05/31 05:13:12;;;;;;;;;;;;;;;14.82;40.16;102462.03;7353304;19;19930;-57
2023/05/31 05:15:38;;;;;;;;;;;;;;;14.84;40.24;102464.63;7357653;19;20044;-57
2023/05/31 05:18:03;;;;;;;;;;;;;;;14.84;40.16;102451.50;7355045;19;19923;-58
2023/05/31 05:20:28;;;;;;;;;;;;;;;14.51;39.98;102398.44;7355609;19;19923;-57
2023/05/31 05:22:54;;;;;;;;;;;;;;;14.87;40.43;102452.31;7350305;19;19949;-57
2023/05/31 05:25:20;;;;;;;;;;;;;;;14.90;40.39;102459.28;7356467;19;19923;-56
2023/05/31 05:27:45;;;;;;;;;;;;;;;14.92;40.00;102453.13;7353890;19;19922;-57
2023/05/31 05:30:11;;;;;;;;;;;;;;;14.95;39.91;102452.22;7351288;19;20495;-57
2023/05/31 05:32:36;;;;;;;;;;;;;;;14.96;40.45;102449.59;7356760;19;19925;-57
2023/05/31 05:35:01;;;;;;;;;;;;;;;15.00;40.32;102453.03;7352940;19;19923;-57
2023/05/31 05:37:27;;;;;;;;;;;;;;;15.03;40.62;102450.38;7359812;19;19932;-57
2023/05/31 05:39:52;;;;;;;;;;;;;;;15.07;40.31;102452.06;7363487;19;19943;-57
2023/05/31 05:42:17;;;;;;;;;;;;;;;15.10;40.17;102446.75;7358843;19;19918;-57
2023/05/31 05:44:43;;;;;;;;;;;;;;;15.13;40.61;102444.09;7360050;19;19927;-57
2023/05/31 05:47:08;;;;;;;;;;;;;;;15.18;40.21;102454.56;7357029;19;20492;-57
2023/05/31 05:49:33;;;;;;;;;;;;;;;15.21;40.21;102444.88;7361454;19;19959;-57
2023/05/31 05:51:59;;;;;;;;;;;;;;;15.25;40.27;102451.78;7361392;19;20309;-57
2023/05/31 05:54:24;;;;;;;;;;;;;;;15.29;40.26;102448.25;7358826;19;19942;-56
2023/05/31 05:56:49;;;;;;;;;;;;;;;15.34;40.30;102444.66;7363391;19;20519;-57
2023/05/31 05:59:15;;;;;;;;;;;;;;;15.39;40.49;102453.38;7348054;19;19927;-57
2023/05/31 06:01:40;;;;;;;;;;;;;;;15.43;40.59;102449.81;7358949;19;20360;-57
2023/05/31 06:04:06;;;;;;;;;;;;;;;15.47;40.23;102451.50;7359023;19;20172;-57
2023/05/31 06:06:31;;;;;;;;;;;;;;;15.52;40.47;102454.94;7350946;19;19915;-58
2023/05/31 06:08:57;;;;;;;;;;;;;;;15.57;40.39;102455.75;7358900;19;19930;-57
2023/05/31 06:11:22;;;;;;;;;;;;;;;15.61;40.44;102452.13;7353543;19;19922;-57
2023/05/31 06:13:48;;;;;;;;;;;;;;;15.65;40.25;102451.25;7354136;19;19915;-57
2023/05/31 06:16:13;;;;;;;;;;;;;;;15.71;40.28;102445.91;7357634;19;19919;-56
2023/05/31 06:18:38;;;;;;;;;;;;;;;15.77;40.09;102450.19;7357173;19;19930;-58
2023/05/31 06:21:04;;;;;;;;;;;;;;;15.81;39.93;102444.84;7358993;19;19930;-57
2023/05/31 06:23:29;;;;;;;;;;;;;;;15.89;39.92;102451.75;7350491;19;20558;-57
2023/05/31 06:25:54;;;;;;;;;;;;;;;15.96;39.77;102448.97;7357342;19;19919;-58
2023/05/31 06:28:20;;;;;;;;;;;;;;;16.04;40.19;102444.44;7356900;19;19926;-57
2023/05/31 06:30:45;;;;;;;;;;;;;;;16.14;39.95;102444.28;7357911;19;19946;-57
2023/05/31 06:33:10;;;;;;;;;;;;;;;16.21;40.13;102451.16;7358763;19;19979;-57
2023/05/31 06:35:35;;;;;;;;;;;;;;;16.29;39.88;102444.88;7353417;19;19915;-58
2023/05/31 06:38:03;;;;;;;;;;;;;;;16.40;40.45;102452.56;7355820;19;20437;-57
2023/05/31 06:40:29;;;;;;;;;;;;;;;16.49;40.31;102447.13;7356190;19;19942;-57
2023/05/31 06:42:54;;;;;;;;;;;;;;;16.59;39.79;102453.09;7352563;19;20328;-56
2023/05/31 06:45:19;;;;;;;;;;;;;;;16.70;39.76;102451.09;7350890;19;19954;-57
2023/05/31 06:47:45;;;;;;;;;;;;;;;16.80;40.65;102449.19;7356424;19;19926;-57
2023/05/31 06:50:11;;;;;;;;;;;;;;;16.91;40.04;102447.19;7355522;19;20240;-57
2023/05/31 06:52:36;;;;;;;;;;;;;;;17.02;40.82;102457.50;7356487;19;19919;-57
2023/05/31 06:55:01;;;;;;;;;;;;;;;17.10;40.97;102455.56;7351392;19;19957;-57
2023/05/31 06:57:27;;;;;;;;;;;;;;;17.18;41.04;102450.13;7336972;19;19925;-57
2023/05/31 06:59:52;;;;;;;;;;;;;;;17.24;40.87;102452.63;7348152;19;19922;-58
2023/05/31 07:02:17;;;;;;;;;;;;;;;17.29;40.70;102443.72;7355642;19;20706;-58
2023/05/31 07:04:43;;;;;;;;;;;;;;;17.34;40.64;102449.75;7355599;19;19926;-57
2023/05/31 07:07:09;;;;;;;;;;;;;;;17.40;40.80;102442.59;7360944;19;19982;-57
2023/05/31 07:09:34;;;;;;;;;;;;;;;17.46;40.72;102447.72;7356786;19;19917;-57
2023/05/31 07:12:00;;;;;;;;;;;;;;;17.50;40.59;102444.13;7358880;19;19961;-57
2023/05/31 07:14:27;;;;;;;;;;;;;;;17.55;40.92;102443.09;7357364;19;19930;-57
2023/05/31 07:16:52;;;;;;;;;;;;;;;17.60;41.19;102446.50;7352842;19;19925;-57
2023/05/31 07:19:18;;;;;;;;;;;;;;;17.64;41.09;102442.00;7359329;19;20703;-57
2023/05/31 07:21:43;;;;;;;;;;;;;;;17.68;41.20;102453.34;7357984;19;19919;-57
2023/05/31 07:24:09;;;;;;;;;;;;;;;17.70;41.33;102447.13;7356392;19;19919;-57
2023/05/31 07:26:35;;;;;;;;;;;;;;;17.72;41.52;102445.31;7356096;19;19933;-57
2023/05/31 07:29:00;;;;;;;;;;;;;;;17.73;40.81;102449.72;7356560;19;19931;-57
2023/05/31 07:31:26;;;;;;;;;;;;;;;17.75;40.87;102449.69;7355772;19;19919;-58
2023/05/31 07:33:51;;;;;;;;;;;;;;;17.76;40.10;102462.00;7357748;19;19978;-58
2023/05/31 07:36:18;;;;;;;;;;;;;;;17.77;41.05;102459.31;7355936;19;19915;-57
2023/05/31 07:38:43;;;;;;;;;;;;;;;17.77;41.31;102456.66;7354015;19;19919;-57
2023/05/31 07:41:09;;;;;;;;;;;;;;;17.78;41.48;102458.41;7356203;19;19958;-57
2023/05/31 07:43:34;;;;;;;;;;;;;;;17.80;41.48;102455.75;7356895;19;19914;-57
2023/05/31 07:45:59;;;;;;;;;;;;;;;17.80;40.75;102453.97;7360184;19;20246;-57
2023/05/31 07:48:25;;;;;;;;;;;;;;;17.82;41.34;102465.34;7358306;19;19923;-57
2023/05/31 07:50:51;;;;;;;;;;;;;;;17.83;40.25;102461.78;7359041;19;19937;-57
2023/05/31 07:53:16;;;;;;;;;;;;;;;17.84;40.65;102460.91;7357779;19;20455;-58
2023/05/31 07:55:41;;;;;;;;;;;;;;;17.85;40.60;102457.34;7343787;19;19940;-57
2023/05/31 07:58:07;;;;;;;;;;;;;;;17.87;40.75;102455.53;7359539;19;19918;-57
2023/05/31 08:00:32;;;;;;;;;;;;;;;17.88;40.71;102462.56;7360024;19;20369;-57
2023/05/31 08:02:57;;;;;;;;;;;;;;;17.92;40.24;102462.47;7356685;19;19939;-57
2023/05/31 08:05:23;;;;;;;;;;;;;;;17.94;41.23;102460.66;7359506;19;19932;-57
2023/05/31 08:07:48;;;;;;;;;;;;;;;17.98;41.32;102452.63;7359468;19;21040;-57
2023/05/31 08:10:14;;;;;;;;;;;;;;;18.04;41.11;102462.16;7357427;19;19923;-57
2023/05/31 08:12:39;;;;;;;;;;;;;;;18.10;41.20;102459.38;7357737;19;19914;-57
2023/05/31 08:15:05;;;;;;;;;;;;;;;18.16;40.94;102469.78;7356464;19;19926;-57
2023/05/31 08:17:31;;;;;;;;;;;;;;;18.23;41.25;102471.34;7354572;19;20735;-57
2023/05/31 08:19:56;;;;;;;;;;;;;;;18.29;40.43;102468.53;7354621;19;19950;-57
2023/05/31 08:22:22;;;;;;;;;;;;;;;18.36;40.93;102459.56;7352315;19;19911;-57
2023/05/31 08:24:47;;;;;;;;;;;;;;;18.41;40.54;102462.94;7353374;19;19919;-58
2023/05/31 08:27:12;;;;;;;;;;;;;;;18.47;41.12;102468.97;7353222;19;19926;-57
2023/05/31 08:29:38;;;;;;;;;;;;;;;18.50;41.09;102458.28;7351420;19;19923;-57
2023/05/31 08:32:03;;;;;;;;;;;;;;;18.55;41.06;102466.97;7354037;19;19944;-57
2023/05/31 08:34:29;;;;;;;;;;;;;;;18.61;40.95;102470.31;7355013;19;19931;-57
2023/05/31 08:36:55;;;;;;;;;;;;;;;18.69;41.19;102461.31;7352862;19;19962;-57
2023/05/31 08:39:20;;;;;;;;;;;;;;;18.76;41.01;102469.06;7357297;19;19952;-58
2023/05/31 08:42:00;;;;;;;;;;;;;;;18.86;41.25;102467.88;7353093;19;19922;-57
2023/05/31 08:44:25;;;;;;;;;;;;;;;19.01;41.42;102463.91;7349633;19;20267;-57
2023/05/31 08:46:51;;;;;;;;;;;;;;;19.14;41.53;102459.09;7353367;19;19968;-58
2023/05/31 08:49:16;;;;;;;;;;;;;;;19.31;40.87;102461.22;7351295;19;20438;-57
2023/05/31 08:51:44;;;;;;;;;;;;;;;19.44;41.09;102451.97;7353049;19;20684;-58
2023/05/31 08:54:10;;;;;;;;;;;;;;;19.56;40.90;102450.72;7351135;19;20484;-58
2023/05/31 08:56:36;;;;;;;;;;;;;;;19.68;41.17;102458.31;7355417;19;19927;-57
2023/05/31 08:59:03;;;;;;;;;;;;;;;19.78;41.23;102456.22;7354189;19;20644;-57
2023/05/31 09:01:28;;;;;;;;;;;;;;;19.90;40.61;102459.31;7353335;19;19928;-58
2023/05/31 09:03:53;;;;;;;;;;;;;;;20.02;40.41;102465.13;7355311;19;19923;-57
2023/05/31 09:06:19;;;;;;;;;;;;;;;20.12;40.83;102466.53;7355776;19;19955;-57
2023/05/31 09:08:44;;;;;;;;;;;;;;;20.21;41.09;102460.91;7354314;19;19986;-58
2023/05/31 09:11:11;;;;;;;;;;;;;;;20.34;40.23;102462.22;7362846;19;20591;-57
2023/05/31 09:13:37;;;;;;;;;;;;;;;20.44;40.35;102457.47;7359404;19;19966;-57
2023/05/31 09:16:02;;;;;;;;;;;;;;;20.54;40.03;102452.72;7360472;19;20495;-58
2023/05/31 09:18:35;;;;;;;;;;;;;;;20.63;40.58;102455.00;7358336;19;19918;-57
2023/05/31 09:21:06;;;;;;;;;;;;;;;20.71;39.90;102456.47;7361780;19;19934;-58
2023/05/31 09:23:32;;;;;;;;;;;;;;;20.79;40.23;102453.53;7354929;19;19943;-57
2023/05/31 09:25:57;;;;;;;;;;;;;;;20.84;39.43;102451.56;7352962;19;19918;-57
2023/05/31 09:28:22;;;;;;;;;;;;;;;20.89;40.17;102451.41;7356350;19;20007;-58
2023/05/31 09:31:00;;;;;;;;;;;;;;;20.95;40.05;102454.69;7356066;19;19918;-58
2023/05/31 09:33:36;;;;;;;;;;;;;;;21.03;39.98;102445.53;7357127;19;21083;-57
2023/05/31 09:36:01;;;;;;;;;;;;;;;21.10;39.98;102452.38;7357780;19;19931;-57
2023/05/31 09:38:36;;;;;;;;;;;;;;;21.17;39.26;102449.41;7357599;19;19956;-57
2023/05/31 09:41:30;;;;;;;;;;;;;;;21.23;39.11;102454.47;7358837;19;19922;-57
2023/05/31 09:43:56;;;;;;;;;;;;;;;21.27;39.86;102455.22;7245916;19;2004423;-57
2023/05/31 09:46:21;;;;;;;;;;;;;;;21.32;39.66;102463.91;7356479;19;19919;-57
2023/05/31 09:48:56;;;;;;;;;;;;;;;21.37;39.32;102459.28;7356588;19;19965;-57
2023/05/31 09:51:22;;;;;;;;;;;;;;;21.45;39.21;102465.16;7354835;19;20627;-57
2023/05/31 09:53:49;;;;;;;;;;;;;;;21.48;39.38;102458.84;7358196;19;19927;-58
2023/05/31 09:56:19;;;;;;;;;;;;;;;21.53;38.90;102466.63;7360374;19;20336;-57
2023/05/31 09:58:44;;;;;;;;;;;;;;;21.56;39.31;102450.56;7360165;19;20360;-57
2023/05/31 10:01:10;;;;;;;;;;;;;;;21.61;38.81;102459.22;7362864;19;19923;-58
2023/05/31 10:03:36;;;;;;;;;;;;;;;21.63;38.44;102460.00;7363006;19;20012;-57
2023/05/31 10:06:02;;;;;;;;;;;;;;;21.63;38.51;102463.53;7363345;19;19925;-58
2023/05/31 10:08:28;;;;;;;;;;;;;;;21.61;38.69;102454.75;7360864;19;20264;-58
2023/05/31 10:10:55;;;;;;;;;;;;;;;21.61;38.34;102454.75;7360160;19;19930;-58
2023/05/31 10:13:23;;;;;;;;;;;;;;;21.62;38.98;102458.28;7360566;19;19923;-57
2023/05/31 10:15:50;;;;;;;;;;;;;;;21.62;38.67;102463.59;7363594;19;19927;-57
2023/05/31 10:18:17;;;;;;;;;;;;;;;21.64;38.68;102459.06;7361023;19;19918;-57
2023/05/31 10:20:48;;;;;;;;;;;;;;;21.35;38.75;102415.97;7355967;19;19927;-58
2023/05/31 10:23:20;;;;;;;;;;;;;;;21.68;38.77;102461.53;7361335;19;20315;-58
2023/05/31 10:26:08;;;;;;;;;;;;;;;21.72;38.84;102462.28;7358600;19;19923;-57
2023/05/31 10:28:38;;;;;;;;;;;;;;;21.75;38.57;102456.84;7360062;19;19926;-57
2023/05/31 10:31:04;;;;;;;;;;;;;;;21.77;39.21;102465.63;7360524;19;20347;-57
2023/05/31 10:33:30;;;;;;;;;;;;;;;21.80;38.82;102457.53;7362126;19;19922;-57
2023/05/31 10:35:56;;;;;;;;;;;;;;;21.83;38.72;102456.53;7358514;19;19919;-57
2023/05/31 10:38:26;;;;;;;;;;;;;;;21.89;38.80;102454.47;7360903;19;20775;-57
2023/05/31 10:41:13;;;;;;;;;;;;;;;21.93;38.46;102461.38;7358337;19;19914;-57
2023/05/31 10:43:59;;;;;;;;;;;;;;;21.97;38.21;102463.00;7360952;19;19926;-57
2023/05/31 10:46:28;;;;;;;;;;;;;;;21.97;38.61;102457.66;7361396;19;19923;-58
2023/05/31 10:48:55;;;;;;;;;;;;;;;21.98;38.54;102458.53;7355921;19;20046;-57
2023/05/31 10:51:36;;;;;;;;;;;;;;;21.98;38.46;102464.72;7351493;19;19978;-58
2023/05/31 10:54:02;;;;;;;;;;;;;;;22.01;38.66;102466.41;7346269;19;19927;-58
2023/05/31 10:56:27;;;;;;;;;;;;;;;22.06;38.51;102460.88;7357248;19;19915;-57
2023/05/31 10:58:53;;;;;;;;;;;;;;;22.10;38.89;102463.34;7357231;19;20443;-57
2023/05/31 11:01:20;;;;;;;;;;;;;;;22.14;38.86;102464.09;7360065;19;19923;-58
2023/05/31 11:03:50;;;;;;;;;;;;;;;22.19;38.58;102462.97;7356151;19;20411;-57
2023/05/31 11:06:19;;;;;;;;;;;;;;;22.27;38.76;102470.63;7358051;19;19918;-58
2023/05/31 11:08:58;;;;;;;;;;;;;;;22.31;38.26;102469.56;7357758;19;19915;-57
2023/05/31 11:11:27;;;;;;;;;;;;;;;22.35;38.11;102475.59;7359842;19;19935;-57
2023/05/31 11:13:59;;;;;;;;;;;;;;;22.36;38.74;102464.03;7356733;19;20329;-58
2023/05/31 11:16:26;;;;;;;;;;;;;;;22.38;38.40;102462.16;7356612;19;19926;-57
2023/05/31 11:19:05;;;;;;;;;;;;;;;22.39;38.57;102462.09;7362237;19;19936;-58
2023/05/31 11:21:47;;;;;;;;;;;;;;;22.40;38.14;102455.81;7358278;19;20263;-57
2023/05/31 11:24:28;;;;;;;;;;;;;;;22.40;38.32;102455.81;7360887;19;19926;-57
2023/05/31 11:26:54;;;;;;;;;;;;;;;22.42;38.27;102451.31;7360529;19;19997;-57
2023/05/31 11:29:19;;;;;;;;;;;;;;;22.44;38.72;102454.75;7361851;19;20486;-58
2023/05/31 11:31:50;;;;;;;;;;;;;;;22.48;38.58;102448.38;7358691;19;19926;-57
2023/05/31 11:34:26;;;;;;;;;;;;;;;22.51;38.29;102453.56;7360359;19;20324;-58
2023/05/31 11:36:52;;;;;;;;;;;;;;;22.57;38.13;102451.56;7359050;19;20622;-57
2023/05/31 11:39:18;;;;;;;;;;;;;;;22.62;38.30;102449.56;7358002;19;19918;-57
2023/05/31 11:41:46;;;;;;;;;;;;;;;22.65;38.45;102446.72;7355593;19;19918;-57
2023/05/31 11:44:13;;;;;;;;;;;;;;;22.50;37.46;102408.34;7355666;19;19929;-57
2023/05/31 11:46:41;;;;;;;;;;;;;;;22.70;37.86;102436.72;7351091;19;19922;-57
2023/05/31 11:49:10;;;;;;;;;;;;;;;22.71;38.31;102443.81;7358026;19;19915;-57
2023/05/31 11:51:36;;;;;;;;;;;;;;;22.72;37.95;102427.75;7358298;19;19930;-57
2023/05/31 11:54:03;;;;;;;;;;;;;;;22.74;37.91;102433.00;7359549;19;20016;-58
2023/05/31 11:56:36;;;;;;;;;;;;;;;22.74;38.46;102438.31;7356298;19;19923;-57
2023/05/31 11:59:01;;;;;;;;;;;;;;;22.74;38.13;102430.34;7358610;19;19922;-57
2023/05/31 12:01:26;;;;;;;;;;;;;;;22.76;37.78;102432.00;7358629;19;19925;-57
2023/05/31 12:03:59;;;;;;;;;;;;;;;22.80;38.17;102438.03;7359191;19;20448;-57
2023/05/31 12:06:24;;;;;;;;;;;;;;;22.83;38.41;102437.91;7359299;19;19915;-57
2023/05/31 12:08:51;;;;;;;;;;;;;;;22.86;38.28;102437.78;7356728;19;20395;-57
2023/05/31 12:11:16;;;;;;;;;;;;;;;22.91;38.51;102425.13;7360968;19;19930;-57
2023/05/31 12:13:42;;;;;;;;;;;;;;;22.95;38.28;102423.16;7355892;19;19911;-58
2023/05/31 12:16:07;;;;;;;;;;;;;;;22.99;37.68;102427.41;7357462;19;19927;-58
2023/05/31 12:18:33;;;;;;;;;;;;;;;23.02;37.85;102428.16;7357563;19;19911;-58
2023/05/31 12:21:03;;;;;;;;;;;;;;;23.05;38.03;102417.31;7357072;19;20721;-57
2023/05/31 12:23:30;;;;;;;;;;;;;;;23.09;38.09;102417.19;7358996;19;19927;-57
2023/05/31 12:25:57;;;;;;;;;;;;;;;23.13;37.71;102422.31;7354188;19;19923;-57
2023/05/31 12:28:22;;;;;;;;;;;;;;;23.16;38.19;102415.94;7358424;19;19914;-58
2023/05/31 12:30:48;;;;;;;;;;;;;;;23.23;37.90;102414.72;7355103;19;19986;-57
2023/05/31 12:33:13;;;;;;;;;;;;;;;23.29;38.12;102414.41;7354062;19;20527;-57